createdAt,value
2018-05-03T00:01:05.050Z,12.60
2018-05-03T00:03:32.554Z,12.60
2018-05-03T00:06:00.244Z,12.60
2018-05-03T00:08:27.905Z,12.50
2018-05-03T00:10:55.468Z,12.50
2018-05-03T00:13:22.961Z,12.50
2018-05-03T00:15:50.493Z,12.50
2018-05-03T00:18:18.006Z,12.50
2018-05-03T00:20:45.573Z,12.60
2018-05-03T00:23:13.153Z,12.60
2018-05-03T00:25:40.686Z,12.60
2018-05-03T00:28:08.219Z,12.50
2018-05-03T00:30:35.727Z,12.50
2018-05-03T00:33:04.035Z,12.50
2018-05-03T00:35:31.544Z,12.50
2018-05-03T00:37:59.610Z,12.40
2018-05-03T00:40:27.104Z,12.40
2018-05-03T00:42:54.638Z,12.40
2018-05-03T00:45:22.146Z,12.40
2018-05-03T00:47:49.677Z,12.40
2018-05-03T00:50:17.265Z,12.30
2018-05-03T00:52:44.794Z,12.30
2018-05-03T00:55:12.306Z,12.30
2018-05-03T00:57:39.860Z,12.30
2018-05-03T01:00:07.381Z,12.40
2018-05-03T01:02:35.317Z,12.50
2018-05-03T01:05:02.825Z,12.50
2018-05-03T01:07:30.365Z,12.50
2018-05-03T01:09:58.268Z,12.50
2018-05-03T01:12:27.053Z,12.50
2018-05-03T01:14:55.432Z,12.50
2018-05-03T01:17:23.188Z,12.50
2018-05-03T01:19:51.346Z,12.50
2018-05-03T01:22:18.889Z,12.50
2018-05-03T01:24:46.393Z,12.50
2018-05-03T01:27:14.621Z,12.50
2018-05-03T01:29:42.292Z,12.50
2018-05-03T01:32:09.952Z,12.50
2018-05-03T01:34:37.597Z,12.50
2018-05-03T01:37:05.264Z,12.50
2018-05-03T01:39:32.917Z,12.50
2018-05-03T01:42:00.449Z,12.50
2018-05-03T01:44:29.124Z,12.50
2018-05-03T01:46:57.131Z,12.50
2018-05-03T01:49:24.633Z,12.50
2018-05-03T01:51:52.168Z,12.50
2018-05-03T01:54:19.672Z,12.50
2018-05-03T01:56:47.201Z,12.40
2018-05-03T01:59:14.797Z,12.40
2018-05-03T02:01:42.309Z,12.40
2018-05-03T02:04:10.232Z,12.30
2018-05-03T02:06:38.094Z,12.30
2018-05-03T02:09:05.622Z,12.30
2018-05-03T02:11:33.298Z,12.30
2018-05-03T02:14:00.961Z,12.30
2018-05-03T02:16:28.490Z,12.30
2018-05-03T02:18:56.429Z,12.30
2018-05-03T02:21:24.153Z,12.30
2018-05-03T02:23:52.025Z,12.30
2018-05-03T02:26:19.667Z,12.40
2018-05-03T02:28:47.205Z,12.30
2018-05-03T02:31:14.796Z,12.40
2018-05-03T02:33:42.329Z,12.40
2018-05-03T02:36:09.844Z,12.30
2018-05-03T02:38:37.396Z,12.30
2018-05-03T02:41:04.907Z,12.30
2018-05-03T02:43:32.463Z,12.30
2018-05-03T02:45:59.965Z,12.30
2018-05-03T02:48:28.994Z,12.30
2018-05-03T02:50:56.509Z,12.30
2018-05-03T02:53:24.037Z,12.30
2018-05-03T02:55:51.578Z,12.30
2018-05-03T02:58:31.591Z,12.30
2018-05-03T03:01:17.006Z,12.30
2018-05-03T03:04:02.729Z,12.30
2018-05-03T03:06:48.021Z,12.30
2018-05-03T03:09:33.621Z,12.30
2018-05-03T03:12:27.961Z,12.30
2018-05-03T03:15:13.069Z,12.30
2018-05-03T03:17:58.117Z,12.30
2018-05-03T03:20:53.457Z,12.20
2018-05-03T03:23:38.372Z,12.20
2018-05-03T03:29:32.872Z,12.30
2018-05-03T03:32:16.101Z,12.20
2018-05-03T03:34:43.725Z,12.20
2018-05-03T03:37:23.061Z,12.20
2018-05-03T03:40:08.304Z,12.20
2018-05-03T03:45:45.157Z,12.20
2018-05-03T03:48:15.119Z,12.10
2018-05-03T03:50:42.663Z,12.10
2018-05-03T03:53:10.235Z,12.10
2018-05-03T03:55:38.630Z,12.10
2018-05-03T03:58:06.251Z,12.10
2018-05-03T04:00:34.313Z,12.10
2018-05-03T04:03:01.980Z,12.10
2018-05-03T04:05:29.506Z,12.10
2018-05-03T04:07:57.505Z,12.10
2018-05-03T04:10:25.005Z,12.10
2018-05-03T04:12:52.618Z,12.10
2018-05-03T04:15:20.277Z,12.00
2018-05-03T04:18:00.462Z,12.00
2018-05-03T04:21:02.472Z,12.00
2018-05-03T04:23:43.469Z,12.00
2018-05-03T04:26:11.861Z,12.00
2018-05-03T04:28:39.409Z,12.00
2018-05-03T04:31:08.038Z,12.10
2018-05-03T04:33:35.740Z,12.10
2018-05-03T04:36:03.388Z,12.10
2018-05-03T04:38:30.917Z,12.20
2018-05-03T04:40:58.820Z,12.20
2018-05-03T04:43:26.380Z,12.20
2018-05-03T04:45:53.895Z,12.30
2018-05-03T04:48:21.821Z,12.30
2018-05-03T04:50:49.373Z,12.30
2018-05-03T04:53:17.007Z,12.30
2018-05-03T04:55:44.513Z,12.30
2018-05-03T04:58:12.053Z,12.30
2018-05-03T05:00:39.578Z,12.30
2018-05-03T05:03:07.237Z,12.40
2018-05-03T05:05:34.759Z,12.50
2018-05-03T05:08:03.010Z,12.50
2018-05-03T05:10:30.674Z,12.50
2018-05-03T05:12:58.265Z,12.60
2018-05-03T05:15:25.779Z,12.60
2018-05-03T05:17:53.394Z,12.60
2018-05-03T05:20:20.917Z,12.60
2018-05-03T05:22:48.809Z,12.70
2018-05-03T05:25:18.113Z,12.70
2018-05-03T05:27:45.627Z,12.80
2018-05-03T05:30:13.850Z,12.80
2018-05-03T05:32:41.361Z,12.90
2018-05-03T05:35:10.433Z,12.90
2018-05-03T05:37:38.150Z,13.00
2018-05-03T05:40:05.697Z,13.00
2018-05-03T05:42:33.203Z,13.10
2018-05-03T05:45:00.756Z,13.10
2018-05-03T05:47:28.266Z,13.10
2018-05-03T05:49:55.820Z,13.10
2018-05-03T05:52:23.487Z,13.10
2018-05-03T05:54:52.013Z,13.20
2018-05-03T05:57:19.924Z,13.40
2018-05-03T05:59:48.221Z,13.40
2018-05-03T06:02:15.733Z,13.40
2018-05-03T06:04:43.545Z,13.40
2018-05-03T06:07:11.181Z,13.40
2018-05-03T06:09:38.728Z,13.60
2018-05-03T06:12:06.229Z,13.50
2018-05-03T06:14:33.774Z,13.50
2018-05-03T06:17:01.327Z,13.50
2018-05-03T06:19:28.861Z,13.50
2018-05-03T06:21:56.933Z,13.50
2018-05-03T06:24:24.532Z,13.60
2018-05-03T06:26:52.142Z,13.70
2018-05-03T06:29:19.793Z,13.70
2018-05-03T06:31:47.306Z,13.70
2018-05-03T06:34:15.249Z,13.50
2018-05-03T06:36:42.777Z,13.50
2018-05-03T06:39:10.340Z,13.50
2018-05-03T06:41:37.872Z,13.50
2018-05-03T06:44:05.409Z,13.70
2018-05-03T06:46:33.323Z,14.10
2018-05-03T06:49:01.150Z,14.10
2018-05-03T06:51:28.745Z,14.20
2018-05-03T06:53:56.246Z,14.40
2018-05-03T06:56:24.177Z,15.60
2018-05-03T06:58:51.697Z,15.60
2018-05-03T07:01:20.179Z,16.10
2018-05-03T07:03:47.696Z,17.00
2018-05-03T07:06:15.634Z,17.80
2018-05-03T07:08:43.174Z,18.30
2018-05-03T07:11:10.723Z,18.80
2018-05-03T07:13:38.279Z,19.80
2018-05-03T07:16:05.913Z,19.90
2018-05-03T07:18:33.606Z,20.10
2018-05-03T07:21:02.605Z,20.60
2018-05-03T07:23:30.329Z,22.10
2018-05-03T07:25:57.991Z,23.20
2018-05-03T07:28:25.651Z,22.80
2018-05-03T07:30:53.352Z,22.50
2018-05-03T07:33:20.723Z,21.80
2018-05-03T07:35:48.286Z,20.60
2018-05-03T07:38:18.584Z,19.30
2018-05-03T07:40:46.235Z,19.40
2018-05-03T07:43:13.857Z,19.10
2018-05-03T07:45:42.001Z,18.70
2018-05-03T07:48:09.987Z,18.20
2018-05-03T07:50:37.653Z,18.20
2018-05-03T07:53:05.310Z,18.10
2018-05-03T07:55:32.918Z,18.10
2018-05-03T07:58:00.714Z,18.20
2018-05-03T08:00:28.290Z,18.50
2018-05-03T08:02:55.943Z,18.50
2018-05-03T08:05:23.470Z,18.70
2018-05-03T08:07:51.470Z,18.60
2018-05-03T08:10:20.909Z,18.60
2018-05-03T08:12:48.416Z,18.50
2018-05-03T08:15:15.990Z,18.60
2018-05-03T08:17:43.509Z,18.90
2018-05-03T08:20:11.041Z,20.10
2018-05-03T08:22:39.289Z,20.60
2018-05-03T08:25:07.901Z,20.20
2018-05-03T08:27:35.593Z,20.00
2018-05-03T08:30:03.098Z,20.10
2018-05-03T08:32:32.592Z,20.80
2018-05-03T08:35:00.085Z,21.60
2018-05-03T08:37:49.498Z,23.40
2018-05-03T08:40:17.245Z,23.40
2018-05-03T08:42:44.906Z,25.10
2018-05-03T08:45:12.409Z,27.10
2018-05-03T08:47:39.929Z,26.60
2018-05-03T08:50:07.437Z,24.70
2018-05-03T08:52:35.114Z,23.40
2018-05-03T08:55:02.621Z,22.80
2018-05-03T08:57:30.152Z,22.20
2018-05-03T08:59:57.665Z,21.50
2018-05-03T09:02:25.354Z,21.40
2018-05-03T09:04:53.014Z,21.00
2018-05-03T09:07:20.541Z,20.60
2018-05-03T09:09:48.444Z,20.10
2018-05-03T09:12:17.342Z,20.10
2018-05-03T09:14:44.862Z,20.00
2018-05-03T09:17:12.538Z,19.80
2018-05-03T09:19:40.049Z,19.80
2018-05-03T09:22:07.985Z,19.50
2018-05-03T09:24:35.491Z,19.50
2018-05-03T09:27:03.044Z,19.20
2018-05-03T09:29:30.570Z,19.10
2018-05-03T09:31:58.113Z,19.10
2018-05-03T09:34:25.608Z,19.00
2018-05-03T09:36:53.156Z,18.80
2018-05-03T09:39:20.665Z,18.30
2018-05-03T09:41:48.393Z,18.10
2018-05-03T09:44:15.957Z,18.00
2018-05-03T09:46:43.488Z,18.20
2018-05-03T09:49:11.688Z,18.60
2018-05-03T09:51:39.410Z,18.60
2018-05-03T09:54:07.526Z,18.90
2018-05-03T09:56:34.986Z,18.90
2018-05-03T09:59:02.513Z,19.20
2018-05-03T10:01:30.019Z,19.60
2018-05-03T10:03:58.311Z,19.80
2018-05-03T10:06:26.215Z,20.70
2018-05-03T10:08:53.773Z,20.70
2018-05-03T10:11:21.277Z,22.00
2018-05-03T10:13:48.821Z,22.70
2018-05-03T10:16:16.321Z,23.00
2018-05-03T10:18:43.985Z,24.00
2018-05-03T10:21:12.276Z,25.40
2018-05-03T10:23:39.808Z,26.00
2018-05-03T10:26:11.388Z,26.20
2018-05-03T10:28:38.909Z,25.20
2018-05-03T10:31:06.429Z,24.50
2018-05-03T10:33:34.967Z,24.00
2018-05-03T10:36:02.555Z,23.80
2018-05-03T10:38:30.237Z,24.00
2018-05-03T10:40:58.939Z,23.50
2018-05-03T10:43:26.861Z,22.90
2018-05-03T10:45:55.527Z,22.90
2018-05-03T10:48:23.065Z,22.80
2018-05-03T10:50:50.632Z,23.00
2018-05-03T10:53:18.189Z,23.30
2018-05-03T10:55:45.685Z,22.90
2018-05-03T10:58:13.302Z,22.60
2018-05-03T11:00:40.801Z,22.40
2018-05-03T11:03:08.349Z,22.20
2018-05-03T11:05:36.202Z,21.90
2018-05-03T11:08:04.053Z,21.60
2018-05-03T11:10:31.569Z,21.60
2018-05-03T11:12:59.109Z,21.80
2018-05-03T11:15:27.012Z,21.90
2018-05-03T11:17:54.557Z,21.90
2018-05-03T11:20:22.224Z,21.60
2018-05-03T11:22:49.761Z,21.50
2018-05-03T11:25:17.273Z,21.60
2018-05-03T11:27:44.813Z,21.80
2018-05-03T11:30:12.338Z,21.80
2018-05-03T11:32:39.895Z,21.90
2018-05-03T11:35:07.440Z,22.10
2018-05-03T11:37:34.945Z,22.00
2018-05-03T11:40:02.473Z,22.00
2018-05-03T11:42:30.869Z,22.20
2018-05-03T11:44:58.753Z,22.00
2018-05-03T11:47:26.273Z,21.90
2018-05-03T11:49:54.141Z,21.90
2018-05-03T11:52:21.866Z,22.20
2018-05-03T11:54:50.661Z,22.70
2018-05-03T11:57:18.325Z,22.70
2018-05-03T11:59:45.983Z,22.80
2018-05-03T12:02:13.846Z,23.00
2018-05-03T12:04:41.803Z,22.80
2018-05-03T12:07:09.373Z,22.60
2018-05-03T12:09:36.912Z,22.50
2018-05-03T12:12:04.422Z,22.20
2018-05-03T12:14:31.953Z,22.30
2018-05-03T12:16:59.453Z,22.60
2018-05-03T12:19:26.998Z,22.40
2018-05-03T12:21:54.918Z,21.80
2018-05-03T12:24:22.474Z,21.90
2018-05-03T12:26:49.989Z,21.80
2018-05-03T12:29:17.696Z,21.60
2018-05-03T12:31:45.841Z,21.50
2018-05-03T12:34:14.625Z,21.20
2018-05-03T12:36:42.121Z,21.20
2018-05-03T12:39:09.673Z,21.10
2018-05-03T12:41:38.246Z,21.20
2018-05-03T12:44:05.784Z,21.20
2018-05-03T12:46:33.295Z,21.20
2018-05-03T12:49:00.833Z,21.10
2018-05-03T12:51:29.655Z,20.70
2018-05-03T12:53:58.137Z,20.80
2018-05-03T12:56:25.638Z,20.60
2018-05-03T12:58:53.388Z,20.70
2018-05-03T13:01:20.966Z,20.40
2018-05-03T13:03:48.508Z,20.30
2018-05-03T13:06:16.010Z,20.10
2018-05-03T13:08:43.513Z,20.10
2018-05-03T13:11:11.045Z,20.20
2018-05-03T13:13:38.561Z,20.40
2018-05-03T13:16:06.618Z,20.20
2018-05-03T13:18:34.142Z,20.20
2018-05-03T13:21:01.673Z,20.10
2018-05-03T13:23:32.985Z,19.80
2018-05-03T13:26:00.539Z,19.80
2018-05-03T13:28:30.068Z,19.80
2018-05-03T13:30:57.603Z,19.90
2018-05-03T13:33:25.107Z,20.10
2018-05-03T13:35:53.239Z,20.30
2018-05-03T13:38:20.965Z,20.60
2018-05-03T13:40:49.033Z,20.80
2018-05-03T13:43:16.580Z,20.80
2018-05-03T13:45:44.100Z,20.60
2018-05-03T13:48:11.773Z,20.70
2018-05-03T13:50:40.648Z,20.70
2018-05-03T13:53:08.147Z,20.50
2018-05-03T13:55:35.784Z,20.40
2018-05-03T13:58:03.229Z,20.20
2018-05-03T14:00:30.765Z,20.00
2018-05-03T14:02:58.785Z,19.90
2018-05-03T14:05:26.422Z,19.90
2018-05-03T14:07:54.080Z,19.80
2018-05-03T14:10:21.610Z,19.90
2018-05-03T14:12:49.518Z,19.90
2018-05-03T14:15:17.063Z,19.90
2018-05-03T14:17:45.376Z,19.90
2018-05-03T14:20:13.480Z,20.00
2018-05-03T14:22:40.984Z,20.00
2018-05-03T14:25:08.531Z,19.90
2018-05-03T14:27:36.034Z,19.80
2018-05-03T14:30:04.582Z,19.70
2018-05-03T14:32:32.101Z,19.70
2018-05-03T14:34:59.634Z,19.80
2018-05-03T14:37:27.162Z,20.10
2018-05-03T14:39:54.709Z,20.30
2018-05-03T14:42:22.313Z,20.30
2018-05-03T15:53:52.205Z,18.60
2018-05-03T15:56:19.829Z,18.50
2018-05-03T15:58:48.449Z,18.40
2018-05-03T16:01:16.107Z,18.30
2018-05-03T16:03:43.609Z,18.30
2018-05-03T16:06:11.216Z,18.30
2018-05-03T16:08:38.757Z,18.20
2018-05-03T16:11:06.289Z,18.20
2018-05-03T16:13:33.993Z,18.10
2018-05-03T16:16:01.496Z,18.00
2018-05-03T16:18:29.025Z,17.90
2018-05-03T16:20:56.525Z,17.90
2018-05-03T16:23:24.125Z,17.80
2018-05-03T16:25:51.666Z,17.80
2018-05-03T16:28:19.204Z,17.70
2018-05-03T16:30:46.704Z,17.70
2018-05-03T16:33:14.236Z,17.70
2018-05-03T16:35:41.742Z,17.60
2018-05-03T16:38:09.293Z,17.60
2018-05-03T16:40:36.907Z,17.60
2018-05-03T16:43:04.438Z,17.50
2018-05-03T16:45:31.954Z,17.50
2018-05-03T16:47:59.481Z,17.50
2018-05-03T16:50:27.142Z,17.50
2018-05-03T16:52:54.677Z,17.50
2018-05-03T16:55:22.247Z,17.50
2018-05-03T16:57:49.901Z,17.50
2018-05-03T17:00:17.645Z,17.50
2018-05-03T17:02:45.189Z,17.50
2018-05-03T17:05:12.711Z,17.50
2018-05-03T17:07:40.262Z,17.50
2018-05-03T17:10:07.987Z,17.40
2018-05-03T17:12:35.927Z,17.40
2018-05-03T17:15:03.833Z,17.40
2018-05-03T17:17:31.374Z,17.40
2018-05-03T17:19:58.881Z,17.50
2018-05-03T17:22:26.845Z,17.50
2018-05-03T17:24:54.551Z,17.50
2018-05-03T17:27:22.221Z,17.40
2018-05-03T17:29:49.737Z,17.40
2018-05-03T17:32:17.297Z,17.30
2018-05-03T17:34:44.804Z,17.20
2018-05-03T17:37:12.836Z,17.10
2018-05-03T17:39:40.337Z,17.10
2018-05-03T17:42:07.863Z,17.00
2018-05-03T17:44:35.406Z,16.90
2018-05-03T17:47:03.480Z,16.90
2018-05-03T17:49:31.265Z,16.80
2018-05-03T17:51:58.777Z,16.80
2018-05-03T17:54:26.453Z,16.80
2018-05-03T17:56:53.982Z,16.80
2018-05-03T17:59:21.945Z,16.70
2018-05-03T18:01:49.628Z,16.70
2018-05-03T18:04:17.160Z,16.70
2018-05-03T18:06:45.372Z,16.70
2018-05-03T18:09:12.917Z,16.60
2018-05-03T18:11:40.459Z,16.60
2018-05-03T18:14:08.133Z,16.60
2018-05-03T18:16:35.637Z,16.50
2018-05-03T18:19:03.197Z,16.50
2018-05-03T18:21:30.983Z,16.50
2018-05-03T18:23:58.458Z,16.50
2018-05-03T18:26:25.971Z,16.50
2018-05-03T18:28:54.091Z,16.40
2018-05-03T18:31:21.601Z,16.40
2018-05-03T18:33:49.153Z,16.40
2018-05-03T18:36:16.656Z,16.40
2018-05-03T18:38:44.309Z,16.40
2018-05-03T18:41:11.813Z,16.40
2018-05-03T18:43:39.452Z,16.40
2018-05-03T18:46:07.078Z,16.30
2018-05-03T18:48:34.617Z,16.30
2018-05-03T18:51:02.616Z,16.20
2018-05-03T18:53:30.993Z,16.20
2018-05-03T18:55:58.547Z,16.20
2018-05-03T18:58:26.111Z,16.20
2018-05-03T19:00:53.610Z,16.10
2018-05-03T19:03:21.713Z,16.10
2018-05-03T19:05:49.293Z,16.00
2018-05-03T19:08:16.839Z,16.00
2018-05-03T19:10:44.375Z,16.00
2018-05-03T19:13:11.999Z,16.00
2018-05-03T19:15:39.446Z,16.00
2018-05-03T19:18:07.053Z,16.00
2018-05-03T19:20:34.674Z,16.10
2018-05-03T19:23:02.276Z,16.00
2018-05-03T19:25:29.817Z,16.00
2018-05-03T19:27:57.330Z,16.00
2018-05-03T19:30:24.872Z,16.00
2018-05-03T19:32:52.382Z,15.90
2018-05-03T19:35:20.056Z,15.90
2018-05-03T19:37:47.552Z,15.90
2018-05-03T19:40:15.174Z,15.90
2018-05-03T19:42:42.691Z,15.90
2018-05-03T19:45:10.632Z,15.90
2018-05-03T19:47:38.200Z,15.90
2018-05-03T19:50:05.685Z,15.90
2018-05-03T19:52:33.182Z,15.90
2018-05-03T19:55:00.713Z,15.90
2018-05-03T19:57:28.365Z,15.90
2018-05-03T19:59:56.030Z,15.90
2018-05-03T20:02:23.548Z,15.90
2018-05-03T20:04:51.506Z,15.80
2018-05-03T20:07:19.013Z,15.80
2018-05-03T20:09:46.537Z,15.80
2018-05-03T20:12:14.432Z,15.80
2018-05-03T20:14:41.961Z,15.80
2018-05-03T20:17:09.644Z,15.80
2018-05-03T20:19:37.185Z,15.80
2018-05-03T20:22:04.757Z,15.70
2018-05-03T20:24:32.293Z,15.70
2018-05-03T20:26:59.786Z,15.70
2018-05-03T20:29:27.325Z,15.70
2018-05-03T20:31:54.884Z,15.70
2018-05-03T20:34:22.381Z,15.70
2018-05-03T20:36:50.080Z,15.70
2018-05-03T20:39:17.701Z,15.70
2018-05-03T20:41:45.250Z,15.60
2018-05-03T20:44:12.765Z,15.60
2018-05-03T20:46:40.321Z,15.60
2018-05-03T20:49:07.964Z,15.60
2018-05-03T20:51:35.634Z,15.50
2018-05-03T20:54:03.296Z,15.50
2018-05-03T20:56:30.940Z,15.50
2018-05-03T20:58:58.379Z,15.50
2018-05-03T21:01:25.965Z,15.50
2018-05-03T21:03:53.460Z,15.50
2018-05-03T21:06:20.987Z,15.50
2018-05-03T21:08:48.485Z,15.50
2018-05-03T21:11:16.428Z,15.40
2018-05-03T21:13:43.939Z,15.40
2018-05-03T21:16:11.610Z,15.30
2018-05-03T21:18:39.131Z,15.30
2018-05-03T21:21:06.664Z,15.30
2018-05-03T21:23:34.165Z,15.30
2018-05-03T21:26:01.714Z,15.30
2018-05-03T21:28:29.234Z,15.30
2018-05-03T21:30:56.793Z,15.30
2018-05-03T21:33:24.303Z,15.30
2018-05-03T21:35:51.852Z,15.30
2018-05-03T21:38:19.511Z,15.20
2018-05-03T21:40:47.175Z,15.20
2018-05-03T21:43:14.837Z,15.20
2018-05-03T21:45:42.396Z,15.20
2018-05-03T21:48:09.933Z,15.20
2018-05-03T21:50:37.470Z,15.20
2018-05-03T21:53:05.489Z,15.20
2018-05-03T21:55:33.127Z,15.10
2018-05-03T21:58:00.786Z,15.10
2018-05-03T22:00:28.445Z,15.10
2018-05-03T22:02:55.976Z,15.10
2018-05-03T22:05:23.557Z,15.00
2018-05-03T22:07:51.091Z,15.10
2018-05-03T22:10:18.613Z,15.10
2018-05-03T22:12:46.319Z,15.00
2018-05-03T22:15:13.977Z,15.00
2018-05-03T22:17:41.518Z,15.00
2018-05-03T22:20:09.023Z,15.00
2018-05-03T22:22:36.566Z,15.00
2018-05-03T22:25:04.076Z,14.90
2018-05-03T22:27:32.010Z,15.00
2018-05-03T22:29:59.528Z,15.00
2018-05-03T22:32:27.056Z,14.90
2018-05-03T22:34:54.955Z,15.00
2018-05-03T22:37:22.492Z,15.00
2018-05-03T22:39:50.010Z,15.00
2018-05-03T22:42:17.608Z,14.90
2018-05-03T22:44:45.270Z,14.90
2018-05-03T22:47:12.813Z,14.90
2018-05-03T22:49:40.719Z,14.90
2018-05-03T22:52:08.257Z,14.80
2018-05-03T22:54:35.757Z,14.80
2018-05-03T22:57:03.297Z,14.80
2018-05-03T22:59:31.017Z,14.70
2018-05-03T23:01:58.653Z,14.60
2018-05-03T23:04:26.157Z,14.60
2018-05-03T23:06:53.696Z,14.60
2018-05-03T23:09:21.252Z,14.60
2018-05-03T23:11:48.785Z,14.50
2018-05-03T23:14:16.298Z,14.50
2018-05-03T23:16:43.834Z,14.50
2018-05-03T23:19:11.341Z,14.50
2018-05-03T23:21:39.273Z,14.50
2018-05-03T23:24:07.701Z,14.50
2018-05-03T23:26:35.249Z,14.50
2018-05-03T23:29:02.929Z,14.50
2018-05-03T23:31:30.445Z,14.60
2018-05-03T23:33:58.373Z,14.50
2018-05-03T23:36:25.895Z,14.50
2018-05-03T23:38:53.433Z,14.50
2018-05-03T23:41:21.534Z,14.50
2018-05-03T23:43:49.068Z,14.50
2018-05-03T23:46:16.747Z,14.50
2018-05-03T23:48:44.349Z,14.50
2018-05-03T23:51:11.854Z,14.40
2018-05-03T23:53:39.500Z,14.40
2018-05-03T23:56:06.997Z,14.40
2018-05-03T23:58:34.626Z,14.30
